Geraldton Airport
YGEL : now visible

Aeroporto :











RITROVATECI SU...

 
LOGIN :

Iscrizione | Disclaimer

   EN    FR    IT 

 









Sommario :    VFR   VFR Marginale   IFR   IFR Intensivo   IFR Molto Intensivo
Visibilità : 
Base nubi : 
>= 8 km
>= 3000ft
5 / 8 km
1000 / 3000 ft
1500m / 5 km
500 / 1000 ft
800 / 1500m
200 / 500 ft
< 800m
< 200 ft
Simboli :   Temporali  Nebbia  Neve Forte  Precipitazioni Forti  Vento > 20 kt






- Altitudine del aeroporto : 121 ft
- Codice IATA : GET


YGEL - Geraldton

ULTIMO METAR :
  • 252030Z AUTO 18007KT 9999 // SCT043 OVC051 15/11 Q1018

METARs OBSOLETI :
  • 252000Z AUTO 20008KT 9999 // SCT046 BKN053 15/11 Q1018
  • 251930Z AUTO 19010KT 9999 // BKN053 16/11 Q1018 RF00.2/001.2
  • 251900Z AUTO 15003KT 9999 // SCT031 SCT039 BKN048 15/12 Q1019
  • 251830Z AUTO 11001KT 9999 // SCT031 SCT039 BKN048 15/12 Q1019
  • 251800Z AUTO 17007KT 9999 // SCT029 BKN036 BKN041 15/11 Q1019

TAF TAF YGEL
Valido dal 25 a 18 ore il 26 a 12 ore UTC


251605Z 2518/2612 18014KT 9999 SCT045
FM252000 04005KT 9999 BKN040
FM260800 11008KT 9999 BKN035
FIR YMMM / Oceania



MetMap, La meteo Aeronautica in un colpo d'occhio ! - Copyright ORBIFLY Dicembre 2007 - Disclaimer

ORBIFLY MET'MAP TEAM :

Programmazione e sviluppo : Alexandra Zaïnal
Concezione : Baudouin d'Aumeries
Aiuto per la programmazione : Marc-Olivier Méhu
Supporto tecnico e logistico : Manuel Goepfert
Aiuto per la traduzione : Arnaldo La Scala

Contatto : metmap@orbifly.com




FONTI E CREDITI :

   NOAA       Earth
Advisory